Time;durP1;ratioP1;P1;durP2;ratioP2;P2;SDS_P1;SDS_P2;PMS_P1;PMS_P2;Temp;Humidity;BMP_temperature;BMP_pressure;BME280_temperature;BME280_humidity;BME280_pressure;Samples;Min_cycle;Max_cycle;Signal;HPM_P1;HPM_P2
2022/11/18 00:02:05;;;;;;;14.95;9.45;;;6.50;96.80;;;;;;5010986;28;20050;-74
2022/11/18 00:04:33;;;;;;;13.60;10.27;;;6.60;90.40;;;;;;5011461;28;20515;-74
2022/11/18 00:07:00;;;;;;;13.95;9.88;;;;;;;;;;5010757;28;20054;-74
2022/11/18 00:09:26;;;;;;;13.88;10.07;;;6.60;96.90;;;;;;5011812;28;20125;-74
2022/11/18 00:14:37;;;;;;;17.52;11.15;;;6.60;97.00;;;;;;5011237;28;20050;-74
2022/11/18 00:17:05;;;;;;;14.18;10.05;;;6.90;92.40;;;;;;5011893;28;20443;-73
2022/11/18 00:19:34;;;;;;;15.77;10.73;;;6.50;94.90;;;;;;5010321;28;20060;-73
2022/11/18 00:22:01;;;;;;;14.85;10.50;;;;;;;;;;5009960;28;20050;-73
2022/11/18 00:24:27;;;;;;;14.73;10.68;;;6.70;97.00;;;;;;5011295;28;20060;-73
2022/11/18 00:26:55;;;;;;;15.38;10.70;;;;;;;;;;5011290;28;20058;-73
2022/11/18 00:29:22;;;;;;;17.60;11.00;;;6.50;96.90;;;;;;5011601;28;20133;-73
2022/11/18 00:31:49;;;;;;;15.30;10.73;;;;;;;;;;5009934;28;20058;-73
2022/11/18 00:34:16;;;;;;;15.82;11.15;;;6.50;96.90;;;;;;5009947;28;20068;-73
2022/11/18 00:36:44;;;;;;;15.93;11.20;;;6.50;95.80;;;;;;5010312;28;20064;-73
2022/11/18 00:39:12;;;;;;;16.58;10.63;;;7.20;97.00;;;;;;5010462;28;20076;-72
2022/11/18 00:44:23;;;;;;;18.10;11.38;;;;;;;;;;5010367;28;20053;-73
2022/11/18 00:46:50;;;;;;;15.85;11.02;;;;;;;;;;5012878;28;20060;-73
2022/11/18 00:49:17;;;;;;;21.25;13.65;;;6.80;93.80;;;;;;5012088;28;24515;-73
2022/11/18 00:51:45;;;;;;;18.00;11.35;;;6.70;96.60;;;;;;5012799;28;20052;-73
2022/11/18 00:54:12;;;;;;;20.55;11.75;;;;;;;;;;5013339;28;20056;-72
2022/11/18 00:56:39;;;;;;;14.55;10.82;;;;;;;;;;5012845;28;20133;-74
2022/11/18 00:59:06;;;;;;;16.08;11.02;;;6.50;96.30;;;;;;5014853;28;20050;-73
2022/11/18 01:01:34;;;;;;;15.00;11.10;;;6.50;96.90;;;;;;5012613;28;20049;-72
2022/11/18 01:04:01;;;;;;;19.55;11.38;;;6.50;96.90;;;;;;5015001;28;20104;-72
2022/11/18 01:06:27;;;;;;;16.77;11.25;;;6.90;92.70;;;;;;5013272;28;20062;-73
2022/11/18 01:08:55;;;;;;;18.20;11.75;;;6.30;96.70;;;;;;5014359;28;20551;-73
2022/11/18 01:14:06;;;;;;;18.95;11.88;;;6.40;96.70;;;;;;5014494;28;20045;-73
2022/11/18 01:16:33;;;;;;;17.98;12.10;;;6.60;96.90;;;;;;5014364;28;20050;-72
2022/11/18 01:19:00;;;;;;;16.65;11.18;;;;;;;;;;5013127;28;20053;-73
2022/11/18 01:21:27;;;;;;;18.23;12.15;;;;;;;;;;5012099;28;20049;-73
2022/11/18 01:23:54;;;;;;;22.75;12.20;;;;;;;;;;5014121;28;20049;-73
2022/11/18 01:26:22;;;;;;;19.27;12.65;;;6.60;96.80;;;;;;5013239;28;20049;-73
2022/11/18 01:28:49;;;;;;;18.02;12.45;;;6.50;96.90;;;;;;5014044;28;20053;-73
2022/11/18 01:31:17;;;;;;;18.88;12.07;;;6.60;96.80;;;;;;5013038;28;20049;-73
2022/11/18 01:33:44;;;;;;;19.25;11.30;;;6.30;96.70;;;;;;5013941;28;20100;-73
2022/11/18 01:36:18;;;;;;;19.52;12.35;;;4.50;89.80;;;;;;5012977;28;20058;-73
2022/11/18 01:38:45;;;;;;;18.20;12.07;;;5.70;96.00;;;;;;5012611;28;20057;-73
2022/11/18 01:41:11;;;;;;;17.67;11.38;;;6.50;96.80;;;;;;5011868;28;20054;-73
2022/11/18 01:43:51;;;;;;;22.75;12.65;;;6.40;90.30;;;;;;5012794;28;20058;-74
2022/11/18 01:46:18;;;;;;;18.13;12.10;;;6.30;96.90;;;;;;5012788;28;20144;-73
2022/11/18 01:48:45;;;;;;;16.65;11.40;;;;;;;;;;5012574;28;20053;-72
2022/11/18 01:51:13;;;;;;;21.77;11.52;;;6.60;97.00;;;;;;5011723;28;20479;-73
2022/11/18 01:53:41;;;;;;;20.83;11.95;;;6.30;96.90;;;;;;5013611;28;20360;-72
2022/11/18 01:56:08;;;;;;;18.38;11.55;;;6.30;96.80;;;;;;5012181;28;20137;-73
2022/11/18 01:58:36;;;;;;;18.15;11.73;;;6.30;90.80;;;;;;5012402;28;20128;-73
2022/11/18 02:01:05;;;;;;;18.83;11.35;;;6.30;90.70;;;;;;5011930;28;20057;-73
2022/11/18 02:03:32;;;;;;;18.17;11.10;;;6.30;93.10;;;;;;5013401;28;20048;-73
2022/11/18 02:05:58;;;;;;;15.32;11.13;;;6.20;96.80;;;;;;5012143;28;20144;-73
2022/11/18 02:08:25;;;;;;;20.02;11.50;;;;;;;;;;5012186;28;20487;-74
2022/11/18 02:10:52;;;;;;;19.65;11.30;;;6.40;96.80;;;;;;5012670;28;20410;-73
2022/11/18 02:13:19;;;;;;;17.42;11.77;;;6.70;97.00;;;;;;5012122;28;20137;-73
2022/11/18 02:15:49;;;;;;;16.25;11.07;;;8.20;90.80;;;;;;5011865;28;20510;-73
2022/11/18 02:18:22;;;;;;;18.50;11.00;;;6.20;92.50;;;;;;5012193;28;20053;-73
2022/11/18 02:20:50;;;;;;;21.15;11.88;;;;;;;;;;5012305;28;20052;-73
2022/11/18 02:23:36;;;;;;;16.58;11.10;;;6.20;96.90;;;;;;5011986;28;20061;-73
2022/11/18 02:26:37;;;;;;;17.92;10.88;;;6.40;96.90;;;;;;4979933;28;20140;-73
2022/11/18 02:29:07;;;;;;;19.13;10.95;;;6.40;95.10;;;;;;5028118;28;20132;-73
2022/11/18 02:31:35;;;;;;;16.63;10.98;;;6.30;90.30;;;;;;5011176;28;20141;-74
2022/11/18 02:34:06;;;;;;;19.95;11.15;;;6.30;95.60;;;;;;5010869;28;20180;-72
2022/11/18 02:36:38;;;;;;;16.75;10.75;;;6.50;96.90;;;;;;5011909;28;20069;-73
2022/11/18 02:39:07;;;;;;;18.92;10.50;;;6.20;90.90;;;;;;5011745;28;20495;-73
2022/11/18 02:41:34;;;;;;;17.48;10.60;;;6.40;96.90;;;;;;5012321;28;20472;-73
2022/11/18 02:44:03;;;;;;;15.07;10.57;;;6.10;96.10;;;;;;5011343;28;20136;-73
2022/11/18 02:46:33;;;;;;;15.82;10.23;;;6.30;90.30;;;;;;5011685;28;20056;-73
2022/11/18 02:49:00;;;;;;;16.13;9.07;;;6.30;95.20;;;;;;5012398;28;20046;-73
2022/11/18 02:51:28;;;;;;;13.52;9.18;;;6.20;96.80;;;;;;5012262;28;20054;-73
2022/11/18 02:53:56;;;;;;;15.60;9.80;;;6.20;94.90;;;;;;5012130;28;20125;-73
2022/11/18 02:56:23;;;;;;;16.00;9.85;;;;;;;;;;5011471;28;20499;-74
2022/11/18 02:58:50;;;;;;;16.38;9.52;;;6.10;96.70;;;;;;5011130;28;20229;-73
2022/11/18 03:01:17;;;;;;;16.35;9.70;;;;;;;;;;5011901;28;20053;-73
2022/11/18 03:03:45;;;;;;;15.80;9.45;;;6.30;96.90;;;;;;5012181;28;20065;-73
2022/11/18 03:06:19;;;;;;;16.58;9.65;;;6.20;90.30;;;;;;5011049;28;20137;-74
2022/11/18 03:08:47;;;;;;;13.40;8.55;;;6.30;96.80;;;;;;5010832;28;20062;-72
2022/11/18 03:11:15;;;;;;;12.65;8.90;;;6.20;96.70;;;;;;5011557;28;20072;-73
2022/11/18 03:13:48;;;;;;;15.07;9.57;;;6.30;96.90;;;;;;5011957;28;20473;-73
2022/11/18 03:16:17;;;;;;;14.40;9.02;;;5.50;90.90;;;;;;5011280;28;20484;-74
2022/11/18 03:18:52;;;;;;;11.52;8.43;;;6.10;90.20;;;;;;5011080;28;20068;-74
2022/11/18 03:21:20;;;;;;;12.70;8.35;;;6.30;96.80;;;;;;5010554;28;20379;-73
2022/11/18 03:23:50;;;;;;;14.00;8.93;;;6.10;90.20;;;;;;5011599;28;20418;-72
2022/11/18 03:26:18;;;;;;;13.02;9.13;;;6.20;96.80;;;;;;5012098;28;20128;-73
2022/11/18 03:28:46;;;;;;;13.98;8.73;;;6.00;96.80;;;;;;5011160;28;20503;-73
2022/11/18 03:31:15;;;;;;;14.13;8.43;;;6.10;90.20;;;;;;5010128;28;20511;-73
2022/11/18 03:33:43;;;;;;;12.02;8.90;;;6.70;90.40;;;;;;5010627;28;20543;-72
2022/11/18 03:36:12;;;;;;;13.43;9.10;;;6.30;96.70;;;;;;5011994;28;20049;-73
2022/11/18 03:38:41;;;;;;;12.65;8.35;;;6.00;96.80;;;;;;5010937;28;20245;-73
2022/11/18 03:41:09;;;;;;;14.73;8.65;;;6.20;96.70;;;;;;5010333;28;20056;-73
2022/11/18 03:43:37;;;;;;;11.75;8.45;;;5.90;94.50;;;;;;5010667;28;20112;-73
2022/11/18 03:46:06;;;;;;;16.27;8.90;;;6.00;90.20;;;;;;5010604;28;20054;-73
2022/11/18 03:48:35;;;;;;;13.40;8.60;;;5.90;96.70;;;;;;5010954;28;20053;-73
2022/11/18 03:51:05;;;;;;;12.68;8.88;;;6.10;92.80;;;;;;5010148;28;20525;-73
2022/11/18 03:53:34;;;;;;;11.57;8.20;;;6.50;97.00;;;;;;5010535;28;20086;-72
2022/11/18 03:56:03;;;;;;;11.90;8.50;;;6.00;90.20;;;;;;5008944;28;20410;-73
2022/11/18 03:58:31;;;;;;;16.35;8.77;;;6.00;90.20;;;;;;5009569;28;20064;-74
2022/11/18 04:01:01;;;;;;;12.48;8.50;;;6.00;90.20;;;;;;5024818;28;20046;-74
2022/11/18 04:03:27;;;;;;;12.45;8.43;;;5.90;96.80;;;;;;5030176;28;20061;-73
2022/11/18 04:05:57;;;;;;;12.63;8.48;;;6.10;96.00;;;;;;5030277;28;20059;-73
2022/11/18 04:08:27;;;;;;;12.13;8.75;;;6.30;96.80;;;;;;5030184;28;20136;-73
2022/11/18 04:10:58;;;;;;;12.95;8.70;;;6.00;90.20;;;;;;5029554;28;20079;-73
2022/11/18 04:13:25;;;;;;;14.43;8.75;;;5.90;96.80;;;;;;5031052;28;20048;-73
2022/11/18 04:15:51;;;;;;;15.95;8.73;;;5.80;96.70;;;;;;5028091;28;20509;-73
2022/11/18 04:18:18;;;;;;;15.02;8.85;;;;;;;;;;5030961;28;20053;-73
2022/11/18 04:20:45;;;;;;;13.02;8.50;;;;;;;;;;5031368;28;20045;-74
2022/11/18 04:23:12;;;;;;;14.68;9.38;;;6.50;97.00;;;;;;5033729;28;20080;-73
2022/11/18 04:25:39;;;;;;;14.80;8.95;;;;;;;;;;5033945;28;20136;-74
2022/11/18 04:28:07;;;;;;;16.52;10.27;;;6.00;90.20;;;;;;5033662;28;20079;-73
2022/11/18 04:30:34;;;;;;;16.90;9.77;;;6.00;96.90;;;;;;5032815;28;20061;-73
2022/11/18 04:33:01;;;;;;;15.20;9.35;;;5.90;96.70;;;;;;5033498;28;20130;-73
2022/11/18 04:35:28;;;;;;;15.60;9.23;;;;;;;;;;5033649;28;20156;-73
2022/11/18 04:37:55;;;;;;;17.08;10.60;;;;;;;;;;5034740;28;20053;-73
2022/11/18 04:40:22;;;;;;;18.58;10.15;;;;;;;;;;5032668;28;20064;-74
2022/11/18 04:42:49;;;;;;;18.13;9.52;;;5.90;96.90;;;;;;5033689;28;20053;-72
2022/11/18 04:45:17;;;;;;;15.18;9.38;;;5.90;90.20;;;;;;5033494;28;20085;-73
2022/11/18 04:47:44;;;;;;;18.23;10.60;;;;;;;;;;5017408;28;20544;-74
2022/11/18 04:50:11;;;;;;;20.58;10.57;;;6.50;97.00;;;;;;5012791;28;20484;-73
2022/11/18 04:52:38;;;;;;;18.63;10.65;;;;;;;;;;5029810;28;20058;-73
2022/11/18 04:55:05;;;;;;;21.25;10.35;;;5.90;96.90;;;;;;5013506;28;20068;-73
2022/11/18 04:57:32;;;;;;;20.00;10.15;;;;;;;;;;5014653;28;20137;-74
2022/11/18 04:59:59;;;;;;;17.38;11.00;;;;;;;;;;5027957;28;20617;-73
2022/11/18 05:02:27;;;;;;;19.73;10.57;;;5.90;90.20;;;;;;5033402;28;20448;-74
2022/11/18 05:04:54;;;;;;;18.10;10.55;;;;;;;;;;5033035;28;20057;-73
2022/11/18 05:07:21;;;;;;;19.20;10.75;;;;;;;;;;5031637;28;20061;-73
2022/11/18 05:09:48;;;;;;;20.67;11.23;;;;;;;;;;5030970;28;20049;-73
2022/11/18 05:14:59;;;;;;;20.60;11.45;;;5.90;96.80;;;;;;5033134;28;20038;-73
2022/11/18 05:17:27;;;;;;;19.70;11.30;;;6.00;93.80;;;;;;5034143;28;20050;-73
2022/11/18 05:19:55;;;;;;;18.80;11.18;;;;;;;;;;5032070;28;20414;-76
2022/11/18 05:22:21;;;;;;;25.55;11.88;;;5.80;96.70;;;;;;5033372;28;20060;-73
2022/11/18 05:24:48;;;;;;;24.50;12.32;;;5.90;97.50;;;;;;5033833;28;20045;-73
2022/11/18 05:27:15;;;;;;;18.83;11.73;;;;;;;;;;5032848;28;20053;-73
2022/11/18 05:29:42;;;;;;;24.05;12.15;;;;;;;;;;5032559;28;20064;-73
2022/11/18 05:32:09;;;;;;;20.98;10.98;;;;;;;;;;5032914;28;20048;-73
2022/11/18 05:34:38;;;;;;;19.67;10.50;;;5.70;96.90;;;;;;5032632;28;20057;-73
2022/11/18 05:37:05;;;;;;;20.63;11.05;;;;;;;;;;5033768;28;20132;-74
2022/11/18 05:39:32;;;;;;;21.02;11.45;;;5.80;96.90;;;;;;5032101;28;20060;-73
2022/11/18 05:44:43;;;;;;;19.10;11.07;;;5.90;93.20;;;;;;5032294;28;20053;-73
2022/11/18 05:47:11;;;;;;;22.35;11.27;;;;;;;;;;5032403;28;20061;-73
2022/11/18 05:49:39;;;;;;;18.25;11.18;;;5.80;90.20;;;;;;5032009;28;20053;-74
2022/11/18 05:52:06;;;;;;;20.90;11.73;;;;;;;;;;5031527;28;20049;-72
2022/11/18 05:54:32;;;;;;;20.27;11.85;;;5.70;95.00;;;;;;5032134;28;20577;-72
2022/11/18 05:56:59;;;;;;;24.50;12.55;;;;;;;;;;5032349;28;20140;-72
2022/11/18 05:59:26;;;;;;;23.02;11.25;;;5.90;96.20;;;;;;5031673;28;20140;-73
2022/11/18 06:01:55;;;;;;;23.95;11.98;;;5.90;97.00;;;;;;5032718;28;20041;-72
2022/11/18 06:04:23;;;;;;;20.85;11.57;;;5.70;90.40;;;;;;5032136;28;20057;-73
2022/11/18 06:06:52;;;;;;;21.05;11.65;;;5.70;92.60;;;;;;5031947;28;20063;-73
2022/11/18 06:09:20;;;;;;;23.40;11.68;;;5.70;96.80;;;;;;5031815;28;20140;-73
2022/11/18 06:11:48;;;;;;;21.38;12.20;;;5.70;96.80;;;;;;5031377;28;20050;-72
2022/11/18 06:14:16;;;;;;;21.08;11.30;;;5.80;97.00;;;;;;5032086;28;20061;-73
2022/11/18 06:16:44;;;;;;;23.90;12.00;;;5.60;94.10;;;;;;5031729;28;20496;-73
2022/11/18 06:19:11;;;;;;;23.58;11.55;;;5.80;96.80;;;;;;5031683;28;20144;-73
2022/11/18 06:21:37;;;;;;;24.33;10.95;;;5.70;96.90;;;;;;5032303;28;20063;-74
2022/11/18 06:24:08;;;;;;;23.83;10.82;;;5.80;90.20;;;;;;5031401;28;20140;-73
2022/11/18 06:26:35;;;;;;;20.45;10.82;;;5.80;96.90;;;;;;5031883;28;20092;-74
2022/11/18 06:29:02;;;;;;;19.27;10.98;;;5.70;97.00;;;;;;5031588;28;20057;-74
2022/11/18 06:31:29;;;;;;;18.65;10.73;;;;;;;;;;5030966;28;20068;-73
2022/11/18 06:33:56;;;;;;;17.70;9.82;;;5.70;97.00;;;;;;5032363;28;20056;-74
2022/11/18 06:36:22;;;;;;;20.50;11.05;;;5.50;96.90;;;;;;5032376;28;20046;-74
2022/11/18 06:38:49;;;;;;;19.80;10.30;;;;;;;;;;5031572;28;20057;-74
2022/11/18 06:41:17;;;;;;;22.05;10.82;;;5.70;96.80;;;;;;5030716;28;20063;-74
2022/11/18 06:43:44;;;;;;;22.48;9.38;;;6.00;94.60;;;;;;5031836;28;20418;-72
2022/11/18 06:48:57;;;;;;;;;;;5.60;90.30;;;;;;5033212;28;20391;-74
2022/11/18 06:51:24;;;;;;;20.88;9.65;;;;;;;;;;5030698;28;20388;-74
2022/11/18 06:53:51;;;;;;;16.33;9.38;;;;;;;;;;5031042;28;20228;-74
2022/11/18 06:56:19;;;;;;;18.98;9.48;;;5.70;92.30;;;;;;5031729;28;20041;-73
2022/11/18 06:58:47;;;;;;;21.77;9.93;;;;;;;;;;5031136;28;20053;-72
2022/11/18 07:01:14;;;;;;;19.50;9.93;;;;;;;;;;5030557;28;20055;-73
2022/11/18 07:03:41;;;;;;;19.15;9.52;;;5.70;96.90;;;;;;5031172;28;20065;-72
2022/11/18 07:06:08;;;;;;;17.35;9.65;;;;;;;;;;5031413;28;20045;-73
2022/11/18 07:08:35;;;;;;;20.50;9.95;;;4.90;96.80;;;;;;5031092;28;20053;-72
2022/11/18 07:11:04;;;;;;;15.95;8.70;;;5.40;95.30;;;;;;5030393;28;20076;-72
2022/11/18 07:13:32;;;;;;;16.35;9.07;;;5.80;96.90;;;;;;5030689;28;20104;-72
2022/11/18 07:16:03;;;;;;;14.85;8.63;;;5.50;96.70;;;;;;5030511;28;20061;-72
2022/11/18 07:18:31;;;;;;;17.13;8.65;;;5.50;90.00;;;;;;5030664;28;20054;-73
2022/11/18 07:20:57;;;;;;;18.80;9.18;;;6.00;96.90;;;;;;5030245;28;20053;-72
2022/11/18 07:23:24;;;;;;;15.40;8.13;;;;;;;;;;5031720;28;20475;-74
2022/11/18 07:25:54;;;;;;;13.30;8.27;;;5.30;96.70;;;;;;5030488;28;20544;-72
2022/11/18 07:28:21;;;;;;;16.38;8.73;;;5.40;96.70;;;;;;5030678;28;20053;-72
2022/11/18 07:30:49;;;;;;;14.88;8.25;;;5.70;97.00;;;;;;5031541;28;20053;-74
2022/11/18 07:33:16;;;;;;;15.30;9.10;;;;;;;;;;5030447;28;20049;-74
2022/11/18 07:35:43;;;;;;;15.43;9.27;;;6.00;94.80;;;;;;5030372;28;20061;-75
2022/11/18 07:38:09;;;;;;;16.95;9.05;;;5.40;96.80;;;;;;5031576;28;20053;-75
2022/11/18 07:40:36;;;;;;;15.15;8.68;;;;;;;;;;5031217;28;20071;-73
2022/11/18 07:43:03;;;;;;;19.00;9.23;;;5.40;96.90;;;;;;5031712;28;20053;-73
2022/11/18 07:45:30;;;;;;;17.30;9.63;;;5.10;96.70;;;;;;5030210;28;20061;-73
2022/11/18 07:47:58;;;;;;;14.32;8.15;;;5.40;90.00;;;;;;5030467;28;20057;-75
2022/11/18 07:50:25;;;;;;;13.90;8.60;;;;;;;;;;5029854;28;20087;-75
2022/11/18 07:52:54;;;;;;;20.13;9.75;;;5.40;96.90;;;;;;5031474;28;20461;-75
2022/11/18 07:55:21;;;;;;;19.15;10.50;;;;;;;;;;5032164;28;20665;-74
2022/11/18 07:57:48;;;;;;;21.10;10.07;;;5.40;96.90;;;;;;5035746;28;20489;-74
2022/11/18 08:00:15;;;;;;;18.33;9.35;;;5.00;96.70;;;;;;5033772;28;20136;-74
2022/11/18 08:02:42;;;;;;;16.92;9.65;;;5.30;96.90;;;;;;5034528;28;20060;-72
2022/11/18 08:05:11;;;;;;;15.77;9.20;;;5.40;90.00;;;;;;5033956;28;20144;-71
2022/11/18 08:07:38;;;;;;;15.90;8.75;;;;;;;;;;5034442;28;20065;-73
2022/11/18 08:10:05;;;;;;;15.77;8.27;;;5.30;96.90;;;;;;5033812;28;20498;-72
2022/11/18 08:12:32;;;;;;;15.27;8.25;;;;;;;;;;5034176;28;20053;-72
2022/11/18 08:14:59;;;;;;;21.27;8.20;;;5.30;96.80;;;;;;5033729;28;20063;-72
2022/11/18 08:17:26;;;;;;;17.85;8.02;;;;;;;;;;5034347;28;20060;-73
2022/11/18 08:19:53;;;;;;;16.90;7.43;;;;;;;;;;5033834;28;20502;-72
2022/11/18 08:22:21;;;;;;;15.45;7.80;;;5.30;90.10;;;;;;5033992;28;20053;-74
2022/11/18 08:24:48;;;;;;;15.77;7.68;;;;;;;;;;5033466;28;20136;-73
2022/11/18 08:27:15;;;;;;;15.07;7.60;;;5.60;96.80;;;;;;5034120;28;20144;-72
2022/11/18 08:29:41;;;;;;;13.60;7.90;;;5.40;96.80;;;;;;5033758;28;20103;-71
2022/11/18 08:32:08;;;;;;;14.73;7.90;;;;;;;;;;5033361;28;20056;-72
2022/11/18 08:34:35;;;;;;;14.35;8.60;;;5.30;96.90;;;;;;5033269;28;20422;-72
2022/11/18 08:37:02;;;;;;;12.93;7.45;;;;;;;;;;5033609;28;20061;-72
2022/11/18 08:39:30;;;;;;;12.95;7.55;;;5.50;96.90;;;;;;5033728;28;20132;-71
2022/11/18 08:41:58;;;;;;;14.82;7.05;;;5.30;97.00;;;;;;5034428;28;20132;-72
2022/11/18 08:44:25;;;;;;;14.02;7.45;;;;;;;;;;5033198;28;20084;-72
2022/11/18 08:46:52;;;;;;;15.07;7.40;;;5.30;96.90;;;;;;5033305;28;20057;-72
2022/11/18 08:49:19;;;;;;;14.15;8.05;;;;;;;;;;5033424;28;20061;-73
2022/11/18 08:51:46;;;;;;;14.40;8.50;;;5.30;96.80;;;;;;5032953;28;20059;-71
2022/11/18 08:54:12;;;;;;;17.48;8.90;;;5.20;96.90;;;;;;5033240;28;20057;-72
2022/11/18 08:56:40;;;;;;;13.20;8.55;;;4.50;91.90;;;;;;5033550;28;20550;-73
2022/11/18 08:59:08;;;;;;;17.30;8.88;;;;;;;;;;5033564;28;20139;-74
2022/11/18 09:01:36;;;;;;;16.92;9.00;;;5.30;97.00;;;;;;5032630;28;20084;-74
2022/11/18 09:04:02;;;;;;;17.52;9.93;;;5.30;96.90;;;;;;5032939;28;20050;-74
2022/11/18 09:06:29;;;;;;;19.30;10.60;;;;;;;;;;5032380;28;20061;-74
2022/11/18 09:08:56;;;;;;;20.95;10.23;;;5.30;96.90;;;;;;5033091;28;20068;-75
2022/11/18 09:11:23;;;;;;;19.10;10.30;;;5.10;96.90;;;;;;5033755;28;20075;-74
2022/11/18 09:13:53;;;;;;;21.65;11.00;;;4.60;96.80;;;;;;5032900;28;20056;-73
2022/11/18 09:16:22;;;;;;;18.77;10.85;;;5.20;95.10;;;;;;5032813;28;20059;-73
2022/11/18 09:18:49;;;;;;;24.15;10.95;;;5.70;92.70;;;;;;5032948;28;20487;-73
2022/11/18 09:21:16;;;;;;;20.83;10.70;;;5.50;96.00;;;;;;5033315;28;20049;-73
2022/11/18 09:23:43;;;;;;;24.45;10.73;;;5.10;97.00;;;;;;5033677;28;20049;-74
2022/11/18 09:26:10;;;;;;;19.27;11.57;;;5.10;90.10;;;;;;5033982;28;20049;-73
2022/11/18 09:28:37;;;;;;;;;;;5.10;90.30;;;;;;5033300;28;20487;-74
2022/11/18 09:31:06;;;;;;;19.25;11.07;;;5.10;90.10;;;;;;5033051;28;19921;-74
2022/11/18 09:33:33;;;;;;;22.73;11.30;;;5.20;97.10;;;;;;5032666;28;20049;-74
2022/11/18 09:36:00;;;;;;;23.77;11.20;;;;;;;;;;5033638;28;20049;-73
2022/11/18 09:38:30;;;;;;;25.73;12.13;;;4.80;90.90;;;;;;5033357;28;20102;-73
2022/11/18 09:41:04;;;;;;;23.13;12.13;;;5.00;97.00;;;;;;5031318;28;20057;-74
2022/11/18 09:43:37;;;;;;;24.15;11.77;;;5.10;90.10;;;;;;5027452;28;20450;-74
2022/11/18 09:46:09;;;;;;;22.52;11.68;;;5.00;90.10;;;;;;5017609;28;20045;-73
2022/11/18 09:51:21;;;;;;;27.95;12.85;;;;;;;;;;5030346;28;20499;-74
2022/11/18 09:53:48;;;;;;;22.58;12.23;;;;;;;;;;5031015;28;20508;-74
2022/11/18 09:56:15;;;;;;;21.85;12.32;;;5.00;90.00;;;;;;5031571;28;20470;-73
2022/11/18 09:58:42;;;;;;;23.88;12.93;;;;;;;;;;5031473;28;20482;-72
2022/11/18 10:01:12;;;;;;;26.38;13.55;;;5.00;96.70;;;;;;5030561;28;20434;-73
2022/11/18 10:03:39;;;;;;;27.27;13.90;;;;;;;;;;5031163;28;20521;-73
2022/11/18 10:06:16;;;;;;;27.92;13.73;;;4.40;96.80;;;;;;5031252;28;20144;-73
2022/11/18 10:08:44;;;;;;;25.67;14.15;;;4.10;96.60;;;;;;5032172;28;20502;-73
2022/11/18 10:11:13;;;;;;;24.85;13.95;;;4.90;90.00;;;;;;5030356;28;20140;-75
2022/11/18 10:13:48;;;;;;;30.02;16.77;;;4.90;90.00;;;;;;5030666;28;20124;-75
2022/11/18 10:16:22;;;;;;;30.17;16.07;;;4.90;96.90;;;;;;5032330;28;20052;-73
2022/11/18 10:18:52;;;;;;;29.65;16.63;;;4.80;90.90;;;;;;5030925;28;20459;-73
2022/11/18 10:21:23;;;;;;;32.65;16.13;;;4.70;96.90;;;;;;5030425;28;20052;-73
2022/11/18 10:23:52;;;;;;;28.25;15.75;;;4.90;97.00;;;;;;5032655;28;20072;-74
2022/11/18 10:26:34;;;;;;;29.15;16.05;;;4.90;97.20;;;;;;5032552;28;20045;-72
2022/11/18 10:29:00;;;;;;;29.27;15.48;;;4.60;97.00;;;;;;5031211;28;20137;-72
2022/11/18 10:31:28;;;;;;;33.92;16.52;;;5.10;97.10;;;;;;5030623;28;20418;-72
2022/11/18 10:33:58;;;;;;;33.03;16.60;;;4.80;90.00;;;;;;5032269;28;20088;-72
2022/11/18 10:36:27;;;;;;;38.17;17.58;;;4.80;97.20;;;;;;5031589;28;20543;-72
2022/11/18 10:39:11;;;;;;;37.38;18.77;;;4.70;89.80;;;;;;5031863;28;20064;-72
2022/11/18 10:41:44;;;;;;;31.05;16.75;;;4.80;97.10;;;;;;5031454;28;20061;-71
2022/11/18 10:44:34;;;;;;;38.83;17.85;;;4.80;97.00;;;;;;5031335;28;20137;-73
2022/11/18 10:47:23;;;;;;;38.70;17.92;;;4.50;97.10;;;;;;5031034;28;20140;-72
2022/11/18 10:49:49;;;;;;;30.20;16.92;;;4.70;97.00;;;;;;5031904;28;20061;-72
2022/11/18 10:52:16;;;;;;;30.40;15.52;;;;;;;;;;5030580;28;20064;-74
2022/11/18 10:54:43;;;;;;;31.77;15.50;;;4.30;96.90;;;;;;5031087;28;20049;-72
2022/11/18 10:57:14;;;;;;;36.38;17.58;;;4.70;97.00;;;;;;5032199;28;20077;-73
2022/11/18 10:59:45;;;;;;;31.40;16.73;;;4.70;97.10;;;;;;5031692;28;20483;-72
2022/11/18 11:02:16;;;;;;;28.70;16.33;;;4.60;89.90;;;;;;5030359;28;20248;-72
2022/11/18 11:04:44;;;;;;;32.95;17.85;;;4.50;95.80;;;;;;5032009;28;20089;-73
2022/11/18 11:07:16;;;;;;;33.22;17.95;;;4.80;90.20;;;;;;5030530;28;20136;-74
2022/11/18 11:09:44;;;;;;;31.73;17.15;;;;;;;;;;5011845;28;20849;-75
2022/11/18 11:12:13;;;;;;;28.00;15.38;;;4.50;89.80;;;;;;5010498;28;20652;-75
2022/11/18 11:14:45;;;;;;;28.40;13.70;;;4.40;97.00;;;;;;5010946;28;20153;-72
2022/11/18 11:17:12;;;;;;;24.73;13.50;;;4.60;91.70;;;;;;5010572;28;20058;-72
2022/11/18 11:19:52;;;;;;;24.92;13.73;;;4.20;89.60;;;;;;5011456;28;20046;-73
2022/11/18 11:22:19;;;;;;;23.80;12.90;;;;;;;;;;5009884;28;20112;-72
2022/11/18 11:24:47;;;;;;;22.73;11.98;;;;;;;;;;5011021;28;20104;-74
2022/11/18 11:27:21;;;;;;;19.40;12.07;;;4.50;89.60;;;;;;5010753;28;20392;-74
2022/11/18 11:30:16;;;;;;;21.70;12.50;;;4.30;96.80;;;;;;5010306;28;20090;-73
2022/11/18 11:32:58;;;;;;;22.40;12.93;;;4.80;97.00;;;;;;4993854;28;20141;-74
2022/11/18 11:35:28;;;;;;;25.63;13.27;;;4.50;97.00;;;;;;5011714;28;20049;-74
2022/11/18 11:37:57;;;;;;;29.38;14.25;;;4.50;97.00;;;;;;5011844;28;20052;-73
2022/11/18 11:40:30;;;;;;;23.52;13.57;;;4.40;89.40;;;;;;5011344;28;20427;-71
2022/11/18 11:43:19;;;;;;;26.17;15.13;;;4.60;97.00;;;;;;5011888;28;20073;-73
2022/11/18 11:46:01;;;;;;;33.92;16.85;;;4.40;95.20;;;;;;5012035;28;20053;-73
2022/11/18 11:48:33;;;;;;;31.75;17.25;;;4.50;92.30;;;;;;5011852;28;20054;-74
2022/11/18 11:51:04;;;;;;;29.40;16.25;;;4.40;93.00;;;;;;5011234;28;20071;-73
2022/11/18 11:53:47;;;;;;;27.42;14.95;;;4.10;96.80;;;;;;5009643;28;20056;-73
2022/11/18 11:56:17;;;;;;;24.38;13.55;;;4.30;89.20;;;;;;5005195;28;20050;-73
2022/11/18 11:58:55;;;;;;;27.02;14.35;;;4.40;96.80;;;;;;5011657;28;20053;-73
2022/11/18 12:01:26;;;;;;;25.00;13.90;;;4.40;96.80;;;;;;5010946;28;20046;-73
2022/11/18 12:03:54;;;;;;;26.45;14.80;;;;;;;;;;5010396;28;20081;-73
2022/11/18 12:06:22;;;;;;;28.33;15.23;;;4.50;91.30;;;;;;5022512;28;20179;-72
2022/11/18 12:08:55;;;;;;;30.88;16.70;;;4.20;90.30;;;;;;5030041;28;20060;-72
2022/11/18 12:11:26;;;;;;;30.85;17.70;;;4.00;96.70;;;;;;5030864;28;20055;-73
2022/11/18 12:13:55;;;;;;;33.42;17.20;;;4.40;96.80;;;;;;5030131;28;20060;-72
2022/11/18 12:16:25;;;;;;;33.28;17.95;;;4.20;89.10;;;;;;5031462;28;20457;-72
2022/11/18 12:18:55;;;;;;;30.60;17.23;;;4.20;89.00;;;;;;5029711;28;20068;-72
2022/11/18 12:21:57;;;;;;;33.35;16.77;;;4.10;96.80;;;;;;5029486;28;20141;-72
2022/11/18 12:24:35;;;;;;;29.33;16.48;;;4.20;92.70;;;;;;5030093;28;20077;-72
2022/11/18 12:27:04;;;;;;;31.48;16.67;;;4.20;96.90;;;;;;5030213;28;20067;-72
2022/11/18 12:29:40;;;;;;;31.27;15.98;;;4.10;88.90;;;;;;5024028;28;20049;-73
2022/11/18 12:32:30;;;;;;;32.47;16.77;;;4.10;90.00;;;;;;5010688;28;20042;-72
2022/11/18 12:35:00;;;;;;;29.10;16.17;;;4.00;88.80;;;;;;5024446;28;20056;-72
2022/11/18 12:37:57;;;;;;;30.65;16.88;;;4.00;88.70;;;;;;5008507;28;20053;-73
2022/11/18 12:40:35;;;;;;;29.08;16.02;;;4.10;96.60;;;;;;5024647;28;20068;-72
2022/11/18 12:45:52;;;;;;;30.05;15.30;;;4.00;96.90;;;;;;5013998;28;20495;-72
2022/11/18 12:48:36;;;;;;;26.38;14.82;;;3.60;88.50;;;;;;5030537;28;20085;-74
2022/11/18 12:51:10;;;;;;;25.83;14.60;;;3.90;88.70;;;;;;5029920;28;20061;-74
2022/11/18 12:53:39;;;;;;;25.93;15.23;;;4.00;96.90;;;;;;5014588;28;20050;-72
2022/11/18 12:56:20;;;;;;;28.00;15.88;;;3.80;88.60;;;;;;5030058;28;20069;-73
2022/11/18 12:58:47;;;;;;;27.30;15.15;;;;;;;;;;5030416;28;20068;-71
2022/11/18 13:01:16;;;;;;;27.67;15.35;;;3.80;88.50;;;;;;5014008;28;20142;-71
2022/11/18 13:03:43;;;;;;;30.63;16.42;;;3.60;96.60;;;;;;5014882;28;20486;-73
2022/11/18 13:06:17;;;;;;;30.42;16.13;;;3.60;96.80;;;;;;5030023;28;20132;-73
2022/11/18 13:08:49;;;;;;;29.13;15.60;;;2.30;87.80;;;;;;5014690;28;20050;-72
2022/11/18 13:19:29;;;;;;;28.73;15.52;;;3.50;96.70;;;;;;5014748;28;20132;-71
2022/11/18 13:24:48;;;;;;;31.08;15.48;;;3.60;96.90;;;;;;5013241;28;20129;-71
2022/11/18 13:27:23;;;;;;;30.95;15.13;;;3.60;88.60;;;;;;5013197;28;20054;-72
2022/11/18 13:29:50;;;;;;;30.98;16.20;;;3.50;94.80;;;;;;5029788;28;20053;-71
2022/11/18 13:32:20;;;;;;;30.33;16.55;;;4.90;89.40;;;;;;5028525;28;20464;-72
2022/11/18 13:34:47;;;;;;;31.02;16.25;;;;;;;;;;5014278;28;20056;-70
2022/11/18 13:37:17;;;;;;;37.88;21.45;;;3.70;96.30;;;;;;5012608;28;24511;-70
2022/11/18 13:39:44;;;;;;;33.72;17.92;;;;;;;;;;5014067;28;20392;-70
2022/11/18 13:42:17;;;;;;;37.58;19.83;;;3.50;96.80;;;;;;5012209;28;20066;-70
2022/11/18 13:44:45;;;;;;;33.28;17.95;;;3.50;88.90;;;;;;5028865;28;20053;-71
2022/11/18 13:47:16;;;;;;;41.08;19.30;;;3.60;94.20;;;;;;5012807;28;20064;-70